Aviation WX Report

Aviation WX Report (1)

         

                                                                                                                                 GENERAL AVIATION FORECAST ST. MAARTEN

 

 

DATE ISSUED: March 25th, 2017      VALID TIME: 12:00 -24:00Z

AREA OF COVERAGE: TNCM TMA (Bounded by 18.25N 063.39W, 18.25N 062.51W, 17.47N 062.22W, 17.26N 062.53W, 17.36N 063.39W AND 18.25N 063.39W)

LEVELS OF COVERAGE: MSL TO FL100

SIG WX : VCSH/SHRA.

SIG. CLDS: SCT TCU 1700 – 2000 FT AND TOPS ABV FL100

SFC. VIS: 10+ KM, 4 – 8 KM IN SHRA.

FCST WNDS/TEMP ALOFT 25/18:00Z

LEVEL

WINDS

TEMP

0500 FT

140/20KT

+25

1000 FT

130/20KT

+23

2000 FT

140/20KT

+21

3000 FT

140/20KT

+17

FL050

160/20KT

+15

FL080

150/10KT

+10

FL100

170/05KT

+07

FZL: ABOVE FL100 SPECIAL FEATURES: NONE T AF:

 

TNCM 251138Z 2512/2612 12013KT P6SM VCSH FEW019
  FM252000 14009KT P6SM VCSH BKN018 BKN040
  FM260400 13010KT P6SM SCT018 SCT035

FORECASTER: ALBERT

 

dwx

 

TNCM 251138Z 2512/2612 12013KT P6SM VCSH FEW019
  FM252000 14009KT P6SM VCSH BKN018 BKN040
  FM260400 13010KT P6SM SCT018 SCT035
TKPK 251138Z 2512/2612 09010KT P6SM VCSH FEW019
  FM252000 14008KT P6SM VCSH BKN016 OVC026
  FM260600 09010KT P6SM VCSH SCT018 SCT035
TAF TAPA 251100Z 2512/2612 12012KT 9999 SCT019 BKN038
  PROB40 TEMPO 2514/2524 SHRA BKN014
  PROB30 TEMPO 2604/2610 SHRA
TAF TUPJ 251100Z 2512/2612 15010KT 9999 SCT019 BKN038
  TEMPO 2514/2524 4000 SHRA BKN013
  PROB40 TEMPO 2604/2610 SHRA

Meteorological Department St. Maarten

TIST 251138Z 2512/2612 13013KT P6SM VCSH SCT022 SCT050 BKN090
  FM252300 14008KT P6SM VCSH SCT020 SCT040 BKN080
TISX 251138Z 2512/2612 12010KT P6SM VCSH SCT030 BKN070
  FM252100 12007KT P6SM VCSH SCT024 BKN040 BKN100
  FM252300 12005KT P6SM VCSH SCT020 SCT040 BKN080
TJSJ 251138Z 2512/2612 13004KT P6SM VCSH FEW035 SCT070 BKN090
  FM251530 VRB10KT P6SM VCSH SCT025 BKN040
  FM252300 11005KT P6SM VCSH SCT025 BKN060
TAF MDSD 251000Z 2512/2612 35008KT 9999 SCT018 BKN070
  TEMPO 2518/2600 6000 -RA BKN016 BKN070
17.36N 63.40W and 18.30N 63.40W).
Levels of Coverage: MSL to FL100.
SIG WX: ISOL SHRA.
SIG CLDS: FEW TCU 1000 - 1500FT AND TOPS ABV FL100.
SCT/ BKN LYR SC/AC 2000 - 3500FT AND TOPS ABV FL100.
SFC VIS: 10+ KM, 3 - 7 KM IN SHRA.
FCST WNDS/TEMP ALOFT: 14/ 18:00Z
0500 FT.. 200/10KT +26 FL050.....220/10KT +16
1000 FT.. 200/10KT +24 FL080.....220/05KT +11
2000 FT.. 210/15KT +22 FL100.....200/10KT +08
3000 FT.. 210/15KT +19
FZL: ABV FL100.
SPECIAL FEATURES:
NONE.
TAFS:
TAF TNCM 141200Z 1412/1512 14012KT P6SM VCSH BKN018 BKN035
FM141800 21008KT P6SM VCSH SCT022 SCT050=
Forecaster: DJF.

Save

Save

Save

Save

Save

Save

Save

Save

Save

Save

Save

Save

Save

Save

Save

Save

Save

Save

Save

Save

Save

Save

Save

Save

Save

Save

Save

Save

Save

Save

Save

Save

Save

Save

Save

Save

Save

Save

Save

Save

Save

Save

Save

Save

Save

Save

Save

Save

Save

Save

Save

Save

Save

Save

Save

Save

Save

Save

Save

Save

Save

Save

Save

Save

Save

Save

Save

Save

Save

Save

Save

Save

Save

Save

Save

Save

Save

Save

Save

Save

Save

Save

Save

Save

Save

Save

Save

Save

Save

Save

Save

Save

Save

Save

Save

Save

Save

Save

Save

Save

Save

Save

Save

Save

Save

Save

Save

Save

Save

Save

Save

Save

Save

Save

Save

Save

Save

Save

Save

Save

Save

Save

Save

Save

Save

Save

Save

Save

Save

Save

Save

Save

Save

Save

Save

Save

Save

Save

International News

Go to top